Edwards Air Force Base
KEDW : now visible

Airfield :











YOU CAN JOIN US ON...

 
LOGIN :

Register | Disclaimer

   EN    FR    IT 

 









Legend :    VFR   Marginal VFR   IFR   Intensive IFR   Very Intensive IFR
Visi :
Ceiling :
>= 8 km
>= 3000ft
5 to 8 km
1000 to 3000 ft
1500m to 5 km
500 to 1000 ft
800 to 1500m
200 to 500 ft
< 800m
< 200 ft
Symbols :   Thunderstorms  Fog  Heavy snow  Heavy precipitations  Wind > 20 kt







- Airport Elevation : 2312 ft


KEDW - Edwards Air Force Base

CURRENT METAR :
  • 210958Z AUTO 24016KT 10SM CLR 12/04 A2985 RMK AO2 PK WND 25027/12 SLP098 T01160039

EXPIRED METARs :
  • 210858Z AUTO 20014KT 10SM CLR 11/04 A2986 RMK AO2 SLP103 T01090041 58012
  • 210758Z AUTO 21013KT 10SM CLR 11/04 A2988 RMK AO2 SLPNO T01130038 401880066

TAF TAF KEDW
Valid from the 21 at 10:00 until the 22 at 16:00 UTC


211000Z 2110/2216 23015KT 9999 SCT030 QNH2985INS
BECMG 2113/2114 25020G25KT 9999 BKN030 520009 QNH2982INS
BECMG 2116/2117 27025G35KT 9999 BKN030 530009 QNH2970INS
TEMPO 2122/2201 26035G45KT 560009
BECMG 2204/2205 25015G20KT 9999 SCT040 QNH2967INS TX19/2121Z TN08/2209Z
KZLA FIR / North America



MET'MAP, your aeronautical weather chart ! - Copyright ORBIFLY December 2007 - Disclaimer

ORBIFLY MET'MAP TEAM :

Programming & Development : Alexandra Zaïnal
Concept & Development : Baudouin d'Aumeries
Co-Development & Prog : Marc-Olivier Méhu
Technical & hardware support : Manuel Goepfert

Contact : metmap@orbifly.com




SOURCES & CREDITS :

   NOAA       Earth
Advisory